Time;durP1;ratioP1;P1;durP2;ratioP2;P2;SDS_P1;SDS_P2;PMS_P1;PMS_P2;Temp;Humidity;BMP_temperature;BMP_pressure;BME280_temperature;BME280_humidity;BME280_pressure;Samples;Min_cycle;Max_cycle;Signal;HPM_P1;HPM_P2
2022/10/26 00:01:07;;;;;;;21.15;8.75;;;;;;;9.88;100.00;101202.53;5041143;28;20022;-66
2022/10/26 00:03:33;;;;;;;21.58;8.57;;;;;;;9.93;100.00;101207.84;5044846;28;20096;-65
2022/10/26 00:06:08;;;;;;;23.27;8.65;;;;;;;9.96;100.00;101205.28;5041685;28;20044;-65
2022/10/26 00:08:34;;;;;;;21.08;8.63;;;;;;;9.98;100.00;101197.38;5037218;28;20132;-65
2022/10/26 00:10:59;;;;;;;22.48;8.90;;;;;;;9.98;100.00;101190.34;5044184;28;20025;-65
2022/10/26 00:13:25;;;;;;;21.85;8.65;;;;;;;9.95;100.00;101187.66;5041948;28;20032;-65
2022/10/26 00:15:50;;;;;;;22.02;9.00;;;;;;;9.93;100.00;101184.09;5042465;28;20018;-65
2022/10/26 00:18:16;;;;;;;21.60;9.10;;;;;;;9.94;100.00;101176.19;5042848;28;20025;-65
2022/10/26 00:20:41;;;;;;;22.85;8.90;;;;;;;9.93;100.00;101173.53;5041434;28;20032;-65
2022/10/26 00:23:07;;;;;;;21.85;8.80;;;;;;;9.95;100.00;101172.69;5044162;28;20505;-65
2022/10/26 00:25:32;;;;;;;21.45;9.45;;;;;;;9.98;100.00;101177.13;5036870;28;20029;-65
2022/10/26 00:27:57;;;;;;;20.98;8.85;;;;;;;10.00;100.00;101180.66;5043500;28;20021;-65
2022/10/26 00:30:23;;;;;;;21.88;8.85;;;;;;;10.04;100.00;101171.91;5041777;28;20091;-65
2022/10/26 00:32:48;;;;;;;21.88;8.93;;;;;;;10.09;100.00;101164.94;5042353;28;20036;-65
2022/10/26 00:35:13;;;;;;;21.70;8.68;;;;;;;10.09;100.00;101153.47;5043349;28;20025;-65
2022/10/26 00:37:39;;;;;;;22.33;8.60;;;;;;;10.09;100.00;101148.19;5039376;28;20534;-65
2022/10/26 00:40:04;;;;;;;22.45;8.35;;;;;;;10.11;100.00;101149.97;5045566;28;20028;-65
2022/10/26 00:42:30;;;;;;;21.83;8.48;;;;;;;10.17;100.00;101166.78;5045109;28;20432;-65
2022/10/26 00:44:59;;;;;;;20.17;7.88;;;;;;;10.22;100.00;101180.91;5047013;28;20028;-65
2022/10/26 00:47:37;;;;;;;21.58;7.93;;;;;;;10.26;100.00;101177.44;5045482;28;20116;-65
2022/10/26 00:50:07;;;;;;;21.55;8.15;;;;;;;10.29;100.00;101177.47;5047828;28;20041;-65
2022/10/26 00:52:33;;;;;;;20.65;8.15;;;;;;;10.34;100.00;101174.91;5044689;28;20039;-65
2022/10/26 00:54:58;;;;;;;20.83;7.68;;;;;;;10.35;100.00;101172.28;5047421;28;20071;-65
2022/10/26 00:57:24;;;;;;;20.77;7.93;;;;;;;10.39;100.00;101173.22;5045576;28;20033;-65
2022/10/26 00:59:52;;;;;;;20.00;7.68;;;;;;;10.42;100.00;101168.81;5045882;28;20033;-65
2022/10/26 01:02:17;;;;;;;21.55;8.07;;;;;;;10.44;100.00;101169.75;5046548;28;20054;-65
2022/10/26 01:04:45;;;;;;;21.40;7.90;;;;;;;10.46;100.00;101162.72;5044969;28;20068;-65
2022/10/26 01:07:11;;;;;;;20.70;7.60;;;;;;;10.45;100.00;101154.78;5047307;28;20032;-65
2022/10/26 01:09:37;;;;;;;20.83;7.80;;;;;;;10.42;100.00;101152.97;5044068;28;20017;-65
2022/10/26 01:12:02;;;;;;;23.67;8.27;;;;;;;10.41;100.00;101145.94;5048135;28;20450;-65
2022/10/26 01:14:28;;;;;;;22.30;7.97;;;;;;;10.45;100.00;101149.47;5044633;28;20414;-65
2022/10/26 01:17:16;;;;;;;20.90;8.10;;;;;;;10.43;100.00;101151.25;5046347;28;20373;-65
2022/10/26 01:20:06;;;;;;;20.85;8.25;;;;;;;10.41;100.00;101142.38;5041429;28;20059;-65
2022/10/26 01:23:02;;;;;;;21.45;8.13;;;;;;;10.39;100.00;101141.50;5044162;28;20034;-65
2022/10/26 01:25:40;;;;;;;22.40;8.10;;;;;;;10.37;100.00;101144.13;5043574;28;20045;-65
2022/10/26 01:28:21;;;;;;;21.27;8.18;;;;;;;10.35;100.00;101135.28;5041564;28;20057;-65
2022/10/26 01:30:47;;;;;;;22.20;8.30;;;;;;;10.33;100.00;101125.56;5040449;28;20039;-65
2022/10/26 01:33:15;;;;;;;21.73;8.93;;;;;;;10.34;100.00;101122.97;5044274;28;20420;-65
2022/10/26 01:35:54;;;;;;;21.98;8.70;;;;;;;10.36;100.00;101130.91;5041674;28;20037;-69
2022/10/26 01:38:30;;;;;;;21.95;8.60;;;;;;;10.34;100.00;101128.25;5043180;28;20106;-69
2022/10/26 01:41:09;;;;;;;24.92;9.45;;;;;;;10.32;100.00;101129.94;5043648;28;20041;-69
2022/10/26 01:43:39;;;;;;;22.27;9.20;;;;;;;10.29;100.00;101122.88;5041327;28;20624;-69
2022/10/26 01:46:06;;;;;;;21.20;9.30;;;;;;;10.23;100.00;101119.28;5037335;28;20064;-70
2022/10/26 01:48:32;;;;;;;22.20;9.30;;;;;;;10.22;100.00;101117.50;5044333;28;20064;-70
2022/10/26 01:50:58;;;;;;;22.65;9.80;;;;;;;10.21;100.00;101119.28;5041633;28;20127;-68
2022/10/26 01:53:27;;;;;;;23.00;9.63;;;;;;;10.22;100.00;101113.13;5043464;28;20048;-68
2022/10/26 01:55:54;;;;;;;22.00;9.13;;;;;;;10.21;100.00;101111.34;5042501;28;20095;-70
2022/10/26 01:58:46;;;;;;;22.92;9.57;;;;;;;10.20;100.00;101111.34;5042438;28;20041;-69
2022/10/26 02:01:37;;;;;;;22.52;9.63;;;;;;;10.16;100.00;101117.44;5038485;28;20033;-69
2022/10/26 02:04:15;;;;;;;21.40;9.00;;;;;;;10.15;100.00;101113.03;5043434;28;20084;-68
2022/10/26 02:06:54;;;;;;;22.13;9.20;;;;;;;10.13;100.00;101113.00;5040053;28;20039;-69
2022/10/26 02:09:27;;;;;;;22.55;9.68;;;;;;;10.15;100.00;101110.38;5044812;28;20492;-69
2022/10/26 02:11:54;;;;;;;21.85;9.27;;;;;;;10.15;100.00;101099.81;5044847;28;20068;-64
2022/10/26 02:14:22;;;;;;;22.20;9.55;;;;;;;10.16;100.00;101096.31;5045246;28;20479;-69
2022/10/26 02:16:56;;;;;;;21.67;9.00;;;;;;;10.16;100.00;101094.56;5044222;28;20475;-68
2022/10/26 02:19:22;;;;;;;22.45;9.18;;;;;;;10.16;100.00;101091.03;5044530;28;20021;-68
2022/10/26 02:21:54;;;;;;;21.95;9.20;;;;;;;10.16;100.00;101097.19;5043825;28;20048;-69
2022/10/26 02:24:21;;;;;;;22.48;9.48;;;;;;;10.12;100.00;101096.28;5044629;28;20472;-69
2022/10/26 02:26:49;;;;;;;22.45;9.10;;;;;;;10.13;100.00;101086.59;5043743;28;20147;-68
2022/10/26 02:29:18;;;;;;;20.02;8.88;;;;;;;10.18;100.00;101094.56;5045250;28;20028;-69
2022/10/26 02:31:47;;;;;;;21.30;9.18;;;;;;;10.20;100.00;101088.44;5043384;28;20513;-69
2022/10/26 02:34:17;;;;;;;21.92;9.38;;;;;;;10.19;100.00;101091.06;5045571;28;20353;-69
2022/10/26 02:36:45;;;;;;;21.17;8.95;;;;;;;10.18;100.00;101091.91;5043211;28;20424;-69
2022/10/26 02:39:15;;;;;;;22.65;9.20;;;;;;;10.20;100.00;101098.13;5045849;28;20424;-69
2022/10/26 02:41:43;;;;;;;23.73;9.38;;;;;;;10.19;100.00;101085.78;5042685;28;20036;-70
2022/10/26 02:44:21;;;;;;;23.23;9.48;;;;;;;10.18;100.00;101084.00;5044484;28;20025;-69
2022/10/26 02:46:47;;;;;;;22.95;9.05;;;;;;;10.18;100.00;101081.34;5041083;28;20032;-69
2022/10/26 02:49:12;;;;;;;22.77;8.75;;;;;;;10.14;100.00;101079.59;5045500;28;20107;-68
2022/10/26 02:51:52;;;;;;;23.55;8.80;;;;;;;10.15;100.00;101079.59;5041984;28;20041;-70
2022/10/26 02:54:52;;;;;;;22.40;8.43;;;;;;;10.12;100.00;101076.91;5041254;28;20045;-69
2022/10/26 02:57:33;;;;;;;22.88;8.38;;;;;;;10.11;100.00;101069.84;5040942;28;20029;-69
2022/10/26 03:00:00;;;;;;;22.10;8.45;;;;;;;10.11;100.00;101070.72;5042805;28;20477;-68
2022/10/26 03:02:26;;;;;;;22.00;8.13;;;;;;;10.14;100.00;101079.59;5043598;28;20025;-69
2022/10/26 03:04:53;;;;;;;20.33;8.32;;;;;;;10.14;100.00;101071.66;5043788;28;20024;-69
2022/10/26 03:07:20;;;;;;;21.90;8.25;;;;;;;10.17;100.00;101077.84;5043143;28;20037;-69
2022/10/26 03:09:45;;;;;;;21.23;7.70;;;;;;;10.20;100.00;101071.72;5044560;28;20108;-65
2022/10/26 03:12:11;;;;;;;21.05;7.68;;;;;;;10.22;100.00;101076.13;5042407;28;20064;-65
2022/10/26 03:14:36;;;;;;;20.27;7.50;;;;;;;10.23;100.00;101066.44;5045507;28;20023;-65
2022/10/26 03:17:01;;;;;;;21.77;7.43;;;;;;;10.25;100.00;101068.25;5042325;28;20083;-66
2022/10/26 03:19:27;;;;;;;22.55;8.20;;;;;;;10.25;100.00;101068.25;5044333;28;20025;-65
2022/10/26 03:21:52;;;;;;;20.30;7.50;;;;;;;10.28;100.00;101067.34;5043324;28;20048;-65
2022/10/26 03:24:17;;;;;;;20.10;7.25;;;;;;;10.28;100.00;101070.91;5043110;28;20112;-65
2022/10/26 03:26:42;;;;;;;21.45;7.45;;;;;;;10.29;100.00;101064.75;5044487;28;20021;-65
2022/10/26 03:29:08;;;;;;;19.92;7.30;;;;;;;10.30;100.00;101068.28;5041374;28;20484;-65
2022/10/26 03:31:33;;;;;;;20.92;7.53;;;;;;;10.31;100.00;101070.06;5044904;28;20025;-65
2022/10/26 03:33:58;;;;;;;20.10;7.20;;;;;;;10.34;100.00;101070.13;5042244;28;20029;-65
2022/10/26 03:36:24;;;;;;;21.30;7.35;;;;;;;10.31;100.00;101070.06;5043616;28;20451;-65
2022/10/26 03:38:49;;;;;;;20.63;7.55;;;;;;;10.29;100.00;101053.28;5043508;28;20468;-65
2022/10/26 03:41:14;;;;;;;20.67;7.07;;;;;;;10.30;100.00;101052.41;5041987;28;20038;-65
2022/10/26 03:43:40;;;;;;;20.70;7.60;;;;;;;10.29;100.00;101058.56;5044513;28;20376;-65
2022/10/26 03:46:05;;;;;;;19.95;6.72;;;;;;;10.28;100.00;101059.44;5041355;28;20066;-65
2022/10/26 03:48:30;;;;;;;21.83;7.10;;;;;;;10.27;100.00;101060.31;5044218;28;20051;-65
2022/10/26 03:50:58;;;;;;;20.17;7.05;;;;;;;10.24;100.00;101062.94;5042215;28;20167;-69
2022/10/26 03:53:23;;;;;;;20.70;6.95;;;;;;;10.23;100.00;101063.81;5043148;28;20021;-69
2022/10/26 03:55:48;;;;;;;19.33;6.53;;;;;;;10.21;100.00;101055.88;5043518;28;20056;-68
2022/10/26 03:58:14;;;;;;;22.17;6.50;;;;;;;10.24;100.00;101057.66;5041404;28;20457;-67
2022/10/26 04:00:39;;;;;;;19.45;6.22;;;;;;;10.24;100.00;101047.09;5044515;28;20029;-69
2022/10/26 04:03:04;;;;;;;18.98;6.18;;;;;;;10.27;100.00;101044.47;5041014;28;20087;-69
2022/10/26 04:05:30;;;;;;;21.50;6.25;;;;;;;10.32;100.00;101050.66;5043853;28;20036;-68
2022/10/26 04:07:57;;;;;;;19.83;5.70;;;;;;;10.37;100.00;101046.34;5042173;28;20021;-69
2022/10/26 04:10:24;;;;;;;22.25;6.28;;;;;;;10.40;100.00;101053.44;5041473;28;20017;-69
2022/10/26 04:12:50;;;;;;;19.42;6.00;;;;;;;10.48;100.00;101056.13;5043004;28;20029;-68
2022/10/26 04:15:16;;;;;;;20.65;5.95;;;;;;;10.52;100.00;101058.78;5040563;28;20025;-69
2022/10/26 04:17:42;;;;;;;20.00;5.70;;;;;;;10.59;100.00;101062.38;5043922;28;20039;-69
2022/10/26 04:20:08;;;;;;;19.02;5.95;;;;;;;10.62;100.00;101052.72;5040986;28;20101;-69
2022/10/26 04:22:34;;;;;;;20.95;6.10;;;;;;;10.67;100.00;101055.38;5043870;28;20151;-69
2022/10/26 04:24:59;;;;;;;18.88;5.70;;;;;;;10.72;100.00;101051.03;5041784;28;20052;-69
2022/10/26 04:27:24;;;;;;;18.30;5.70;;;;;;;10.75;100.00;101045.75;5042919;28;20104;-70
2022/10/26 04:29:50;;;;;;;19.75;5.88;;;;;;;10.78;100.00;101048.41;5042580;28;20483;-65
2022/10/26 04:32:15;;;;;;;20.00;5.40;;;;;;;10.81;100.00;101040.50;5041276;28;20053;-69
2022/10/26 04:34:40;;;;;;;20.20;5.50;;;;;;;10.85;100.00;101043.16;5044338;28;20116;-69
2022/10/26 04:37:05;;;;;;;19.55;5.57;;;;;;;10.87;100.00;101041.44;5040566;28;20022;-69
2022/10/26 04:39:31;;;;;;;19.33;5.57;;;;;;;10.87;100.00;101044.06;5043335;28;20060;-69
2022/10/26 04:41:56;;;;;;;21.88;5.63;;;;;;;10.87;100.00;101037.00;5042288;28;20021;-69
2022/10/26 04:44:21;;;;;;;19.88;5.38;;;;;;;10.90;100.00;101039.66;5042013;28;20025;-69
2022/10/26 04:46:47;;;;;;;20.55;5.35;;;;;;;10.92;100.00;101039.69;5043446;28;20031;-69
2022/10/26 04:49:12;;;;;;;20.50;5.50;;;;;;;10.95;100.00;101037.03;5040732;28;20499;-70
2022/10/26 04:51:37;;;;;;;18.70;5.35;;;;;;;10.97;100.00;101037.97;5043769;28;20052;-68
2022/10/26 04:54:03;;;;;;;19.15;5.20;;;;;;;10.99;100.00;101047.69;5040972;28;20057;-69
2022/10/26 04:56:29;;;;;;;18.80;5.40;;;;;;;11.00;100.00;101045.91;5042936;28;20116;-69
2022/10/26 04:58:54;;;;;;;17.42;5.13;;;;;;;11.01;100.00;101052.06;5041901;28;20021;-69
2022/10/26 05:01:20;;;;;;;20.17;5.50;;;;;;;11.03;100.00;101055.63;5042073;28;20026;-69
2022/10/26 05:03:50;;;;;;;18.05;5.13;;;;;;;11.02;100.00;101054.72;5043306;28;20460;-67
2022/10/26 05:06:15;;;;;;;17.85;5.35;;;;;;;11.00;100.00;101045.91;5041085;28;20030;-68
2022/10/26 05:08:40;;;;;;;20.85;5.13;;;;;;;11.00;100.00;101051.19;5043781;28;20487;-69
2022/10/26 05:11:06;;;;;;;20.13;5.32;;;;;;;11.01;100.00;101052.06;5040335;28;20116;-69
2022/10/26 05:13:31;;;;;;;17.42;4.95;;;;;;;11.00;100.00;101059.13;5043002;28;20100;-68
2022/10/26 05:15:56;;;;;;;18.67;5.20;;;;;;;10.99;100.00;101049.41;5041580;28;20057;-69
2022/10/26 05:18:22;;;;;;;18.90;5.38;;;;;;;10.99;100.00;101049.41;5041797;28;20116;-69
2022/10/26 05:20:49;;;;;;;19.77;5.22;;;;;;;11.03;100.00;101058.28;5042678;28;20025;-69
2022/10/26 05:23:17;;;;;;;18.00;5.20;;;;;;;11.02;100.00;101057.38;5040971;28;20393;-69
2022/10/26 05:25:43;;;;;;;18.20;5.10;;;;;;;11.01;100.00;101052.06;5043801;28;20017;-69
2022/10/26 05:28:12;;;;;;;18.77;5.25;;;;;;;11.03;100.00;101059.16;5043607;28;20074;-70
2022/10/26 05:30:37;;;;;;;19.75;5.40;;;;;;;11.03;100.00;101059.16;5040042;28;20057;-68
2022/10/26 05:33:03;;;;;;;19.42;5.32;;;;;;;11.04;100.00;101063.56;5046617;28;20053;-69
2022/10/26 05:35:29;;;;;;;18.88;5.40;;;;;;;11.05;100.00;101064.44;5039444;28;20114;-64
2022/10/26 05:37:55;;;;;;;17.73;5.22;;;;;;;11.08;100.00;101065.38;5037995;28;20032;-63
2022/10/26 05:40:20;;;;;;;17.90;5.00;;;;;;;11.08;100.00;101062.72;5035950;28;20029;-63
2022/10/26 05:42:45;;;;;;;18.45;5.10;;;;;;;11.07;100.00;101063.59;5035892;28;20025;-63
2022/10/26 05:45:12;;;;;;;19.63;5.10;;;;;;;11.06;100.00;101061.81;5040135;28;20400;-63
2022/10/26 05:47:38;;;;;;;18.65;5.30;;;;;;;11.07;100.00;101060.94;5035333;28;20378;-64
2022/10/26 05:50:04;;;;;;;18.63;5.00;;;;;;;11.08;100.00;101069.75;5037771;28;20046;-64
2022/10/26 05:52:29;;;;;;;17.60;5.10;;;;;;;11.07;100.00;101062.72;5037398;28;20024;-64
2022/10/26 05:54:55;;;;;;;17.73;4.90;;;;;;;11.07;100.00;101068.88;5037404;28;20100;-63
2022/10/26 05:57:20;;;;;;;17.65;4.80;;;;;;;11.08;100.00;101069.75;5033486;28;20018;-63
2022/10/26 05:59:46;;;;;;;17.60;5.00;;;;;;;11.09;100.00;101075.06;5041935;28;20036;-63
2022/10/26 06:02:32;;;;;;;16.65;4.85;;;;;;;11.12;100.00;101072.41;5040907;28;20029;-64
2022/10/26 06:05:02;;;;;;;16.55;4.80;;;;;;;11.12;100.00;101079.47;5038978;28;20067;-63
2022/10/26 06:07:28;;;;;;;17.33;5.00;;;;;;;11.11;100.00;101085.63;5044060;28;20025;-63
2022/10/26 06:09:53;;;;;;;18.20;5.50;;;;;;;11.11;100.00;101081.25;5044333;28;20029;-62
2022/10/26 06:12:19;;;;;;;18.83;5.40;;;;;;;11.09;100.00;101087.41;5049649;28;20040;-63
2022/10/26 06:14:44;;;;;;;17.88;5.18;;;;;;;11.08;100.00;101091.81;5047280;28;20382;-80
2022/10/26 06:17:15;;;;;;;20.27;5.75;;;;;;;11.05;100.00;101086.47;5046406;28;20037;-72
2022/10/26 06:20:11;;;;;;;17.48;5.20;;;;;;;11.02;100.00;101094.41;5037237;28;20106;-73
2022/10/26 06:22:42;;;;;;;20.42;5.60;;;;;;;10.98;100.00;101090.88;5038693;28;20464;-83
2022/10/26 06:25:46;;;;;;;18.58;4.93;;;;;;;10.93;100.00;101081.13;5039437;28;20021;-79
2022/10/26 06:28:32;;;;;;;19.88;5.57;;;;;;;10.85;100.00;101083.72;5014143;28;20042;-73
2022/10/26 06:30:58;;;;;;;18.77;5.25;;;;;;;10.75;100.00;101081.91;5015292;28;20113;-79
2022/10/26 06:33:25;;;;;;;19.60;5.70;;;;;;;10.70;100.00;101089.78;5011590;28;20125;-79
2022/10/26 06:36:01;;;;;;;19.23;5.55;;;;;;;10.68;100.00;101086.25;5013074;28;20041;-78
2022/10/26 06:38:30;;;;;;;19.55;5.88;;;;;;;10.67;100.00;101083.59;5015502;28;20061;-69
2022/10/26 06:40:56;;;;;;;19.35;5.80;;;;;;;10.70;100.00;101089.78;5010191;28;20033;-81
2022/10/26 06:43:27;;;;;;;19.08;5.80;;;;;;;10.73;100.00;101063.38;5010293;28;20122;-74
2022/10/26 06:46:21;;;;;;;20.00;5.95;;;;;;;10.79;100.00;101063.41;5009036;28;20400;-70
2022/10/26 06:49:08;;;;;;;20.85;5.85;;;;;;;10.88;100.00;101072.25;5011828;28;20067;-74
2022/10/26 06:51:56;;;;;;;18.90;5.50;;;;;;;10.96;100.00;101070.56;5011294;28;21103;-70
2022/10/26 06:54:31;;;;;;;19.73;6.00;;;;;;;11.07;100.00;101074.16;5009905;28;20026;-78
2022/10/26 06:56:57;;;;;;;19.15;5.78;;;;;;;11.14;100.00;101078.63;5012048;28;20025;-83
2022/10/26 06:59:37;;;;;;;21.10;5.80;;;;;;;11.22;100.00;101077.78;5009197;28;20511;-73
2022/10/26 07:02:03;;;;;;;18.67;5.13;;;;;;;11.24;100.00;101074.28;5012807;28;20029;-64
2022/10/26 07:04:28;;;;;;;17.45;5.28;;;;;;;11.25;100.00;101072.50;5022362;28;20041;-64
2022/10/26 07:06:55;;;;;;;20.17;5.85;;;;;;;11.20;100.00;101066.28;5043432;28;20020;-63
2022/10/26 07:09:21;;;;;;;21.60;5.70;;;;;;;11.14;100.00;101080.41;5039387;28;20507;-63
2022/10/26 07:11:46;;;;;;;20.52;6.13;;;;;;;11.07;100.00;101090.03;5046389;28;20033;-63
2022/10/26 07:14:12;;;;;;;20.55;6.13;;;;;;;11.05;100.00;101101.47;5046404;28;20032;-63
2022/10/26 07:16:37;;;;;;;20.00;6.10;;;;;;;11.03;100.00;101096.19;5039237;28;20433;-64
2022/10/26 07:19:02;;;;;;;18.95;5.95;;;;;;;11.06;100.00;101104.13;5050204;28;20028;-64
2022/10/26 07:21:27;;;;;;;19.20;5.97;;;;;;;11.09;100.00;101104.16;5045927;28;20556;-64
2022/10/26 07:23:55;;;;;;;20.15;6.20;;;;;;;11.17;100.00;101104.22;5046123;28;20025;-64
2022/10/26 07:26:21;;;;;;;20.55;6.30;;;;;;;11.24;100.00;101113.06;5042633;28;20029;-64
2022/10/26 07:28:48;;;;;;;19.40;5.97;;;;;;;11.25;100.00;101114.84;5047046;28;20041;-65
2022/10/26 07:31:14;;;;;;;20.10;5.97;;;;;;;11.29;100.00;101116.63;5042440;28;20025;-64
2022/10/26 07:33:40;;;;;;;21.75;6.20;;;;;;;11.37;100.00;101119.31;5043188;28;20034;-64
2022/10/26 07:36:07;;;;;;;19.60;6.32;;;;;;;11.39;100.00;101121.09;5043918;28;20033;-64
2022/10/26 07:38:32;;;;;;;18.52;6.10;;;;;;;11.48;100.00;101117.63;5040719;28;20135;-64
2022/10/26 07:40:58;;;;;;;18.95;5.95;;;;;;;11.52;100.00;101116.75;5044608;28;20064;-64
2022/10/26 07:43:23;;;;;;;18.27;5.60;;;;;;;11.62;100.00;101117.66;5041505;28;20021;-64
2022/10/26 07:45:50;;;;;;;17.73;5.55;;;;;;;11.72;100.00;101124.78;5044134;28;20495;-64
2022/10/26 07:48:15;;;;;;;17.80;5.45;;;;;;;11.81;100.00;101132.78;5042096;28;20029;-64
2022/10/26 07:50:40;;;;;;;17.52;5.35;;;;;;;11.99;100.00;101147.88;5042696;28;20046;-64
2022/10/26 07:53:06;;;;;;;18.35;5.00;;;;;;;12.19;100.00;101153.22;5042074;28;20037;-64
2022/10/26 07:55:31;;;;;;;19.40;4.88;;;;;;;12.33;100.00;101157.69;5041800;28;20026;-64
2022/10/26 07:57:57;;;;;;;16.35;4.60;;;;;;;12.40;100.00;101151.50;5044515;28;20536;-64
2022/10/26 08:00:22;;;;;;;17.30;4.53;;;;;;;12.53;100.00;101150.63;5037016;28;20384;-64
2022/10/26 08:02:47;;;;;;;16.92;4.97;;;;;;;12.70;100.00;101147.13;5043848;28;20116;-64
2022/10/26 08:05:13;;;;;;;16.90;4.80;;;;;;;12.85;100.00;101155.06;5042197;28;20061;-65
2022/10/26 08:07:43;;;;;;;15.90;4.60;;;;;;;13.09;100.00;101166.56;5042402;28;20032;-64
2022/10/26 08:10:09;;;;;;;17.85;4.72;;;;;;;13.24;100.00;101166.53;5043257;28;20035;-65
2022/10/26 08:12:35;;;;;;;18.17;4.68;;;;;;;13.46;100.00;101176.28;5041661;28;20029;-65
2022/10/26 08:15:00;;;;;;;14.38;4.53;;;;;;;13.71;100.00;101177.09;5043933;28;20079;-65
2022/10/26 08:17:27;;;;;;;17.58;4.55;;;;;;;13.95;100.00;101177.00;5041036;28;20032;-64
2022/10/26 08:19:53;;;;;;;16.77;4.60;;;;;;;14.14;100.00;101166.28;5036768;28;20100;-65
2022/10/26 08:22:18;;;;;;;15.63;4.05;;;;;;;14.24;100.00;101167.09;5043914;28;20060;-65
2022/10/26 08:24:45;;;;;;;15.02;4.40;;;;;;;14.32;100.00;101169.75;5042172;28;20021;-65
2022/10/26 08:27:11;;;;;;;15.07;4.10;;;;;;;14.41;100.00;101178.53;5042374;28;20033;-65
2022/10/26 08:29:37;;;;;;;16.27;4.00;;;;;;;14.46;100.00;101187.38;5043011;28;20033;-65
2022/10/26 08:32:02;;;;;;;15.02;4.28;;;;;;;14.41;100.00;101185.63;5041649;28;20048;-65
2022/10/26 08:34:27;;;;;;;17.38;4.38;;;;;;;14.38;100.00;101180.34;5044076;28;20080;-65
2022/10/26 08:36:52;;;;;;;18.05;4.30;;;;;;;14.41;100.00;101193.59;5040742;28;20169;-64
2022/10/26 08:39:18;;;;;;;15.75;4.20;;;;;;;14.47;100.00;101190.91;5043786;28;20116;-65
2022/10/26 08:41:52;;;;;;;16.33;4.35;;;;;;;14.58;100.00;101189.06;5041663;28;20353;-64
2022/10/26 08:44:34;;;;;;;15.50;4.10;;;;;;;14.75;100.00;101190.75;5043497;28;20026;-64
2022/10/26 08:47:08;;;;;;;16.55;3.92;;;;;;;14.90;100.00;101200.41;5037748;28;20488;-65
2022/10/26 08:49:57;;;;;;;16.42;4.00;;;;;;;15.01;100.00;101197.66;5043187;28;20112;-64
2022/10/26 08:52:34;;;;;;;16.75;4.10;;;;;;;15.08;100.00;101188.72;5036500;28;20519;-65
2022/10/26 08:55:02;;;;;;;16.52;3.97;;;;;;;15.24;100.00;101184.13;5037941;28;20025;-65
2022/10/26 08:57:37;;;;;;;15.23;3.97;;;;;;;15.36;100.00;101177.78;5044021;28;20083;-65
2022/10/26 09:00:06;;;;;;;14.20;3.83;;;;;;;15.45;100.00;101161.72;5039405;28;20025;-65
2022/10/26 09:02:31;;;;;;;14.07;3.78;;;;;;;15.54;100.00;101166.97;5046799;28;20028;-65
2022/10/26 09:04:58;;;;;;;16.50;3.80;;;;;;;15.69;100.00;101166.75;5045250;28;20013;-70
2022/10/26 09:07:49;;;;;;;15.10;3.60;;;;;;;15.89;100.00;101167.44;5045351;28;20469;-70
2022/10/26 09:10:24;;;;;;;15.15;3.92;;;;;;;16.06;100.00;101185.91;5041184;28;20443;-70
2022/10/26 09:13:05;;;;;;;15.25;3.80;;;;;;;16.10;100.00;101187.63;5046198;28;20559;-69
2022/10/26 09:16:03;;;;;;;16.33;3.80;;;;;;;16.26;100.00;101204.31;5046454;28;20021;-67
2022/10/26 09:19:16;;;;;;;16.75;3.63;;;;;;;16.39;100.00;101203.25;5044588;28;20489;-66
2022/10/26 09:22:02;;;;;;;15.27;3.88;;;;;;;16.56;100.00;101217.22;5041790;28;20042;-66
2022/10/26 09:24:31;;;;;;;13.55;3.60;;;;;;;16.63;100.00;101223.38;5042896;28;20033;-70
2022/10/26 09:27:10;;;;;;;16.30;3.60;;;;;;;16.70;100.00;101229.47;5043019;28;20029;-66
2022/10/26 09:29:41;;;;;;;16.00;3.80;;;;;;;17.00;100.00;101235.28;5044823;28;20071;-69
2022/10/26 09:32:24;;;;;;;15.55;3.70;;;;;;;17.20;100.00;101232.28;5041537;28;20168;-68
2022/10/26 09:34:58;;;;;;;14.93;3.65;;;;;;;17.39;100.00;101243.53;5040282;28;20514;-67
2022/10/26 09:37:36;;;;;;;15.07;3.40;;;;;;;17.55;100.00;101257.50;5026482;28;20041;-69
2022/10/26 09:40:13;;;;;;;18.65;3.70;;;;;;;17.73;100.00;101261.63;5044210;28;20060;-67
2022/10/26 09:42:59;;;;;;;14.63;3.50;;;;;;;17.77;100.00;101258.88;5041548;28;20033;-69
2022/10/26 09:45:30;;;;;;;14.98;3.90;;;;;;;17.77;100.00;101266.88;5041581;28;20112;-65
2022/10/26 09:48:03;;;;;;;13.85;3.92;;;;;;;17.62;100.00;101261.84;5042862;28;20032;-65
2022/10/26 09:50:34;;;;;;;15.48;4.00;;;;;;;17.55;100.00;101258.38;5043286;28;20045;-65
2022/10/26 09:53:00;;;;;;;15.63;3.60;;;;;;;17.56;100.00;101245.88;5042151;28;20025;-64
2022/10/26 09:55:26;;;;;;;16.73;3.90;;;;;;;17.63;100.00;101263.59;5042925;28;20018;-65
2022/10/26 09:57:55;;;;;;;16.77;3.60;;;;;;;17.97;100.00;101257.66;5041314;28;20056;-65
2022/10/26 10:00:22;;;;;;;14.93;3.70;;;;;;;18.21;100.00;101260.72;5044462;28;20026;-65
2022/10/26 10:02:54;;;;;;;17.05;3.80;;;;;;;18.49;100.00;101274.38;5045999;28;20155;-65
2022/10/26 10:05:33;;;;;;;14.07;3.55;;;;;;;18.74;100.00;101277.41;5042887;28;20032;-65
2022/10/26 10:08:09;;;;;;;16.92;3.65;;;;;;;19.23;100.00;101280.75;5043324;28;20033;-65
2022/10/26 10:10:35;;;;;;;13.98;3.50;;;;;;;19.58;100.00;101278.94;5044706;28;20473;-66
2022/10/26 10:13:15;;;;;;;13.32;3.80;;;;;;;19.92;100.00;101279.88;5044738;28;20021;-65
2022/10/26 10:15:51;;;;;;;14.75;3.75;;;;;;;20.05;100.00;101292.03;5043756;28;20028;-65
2022/10/26 10:18:23;;;;;;;14.48;3.50;;;;;;;20.72;100.00;101299.03;5038897;28;20029;-65
2022/10/26 10:20:55;;;;;;;14.82;3.63;;;;;;;20.85;100.00;101313.88;5039243;28;20386;-66
2022/10/26 10:23:30;;;;;;;15.35;3.50;;;;;;;20.73;100.00;101308.88;5039484;28;20061;-65
2022/10/26 10:26:12;;;;;;;14.20;3.40;;;;;;;20.88;100.00;101313.78;5040708;28;20060;-65
2022/10/26 10:28:40;;;;;;;15.38;3.95;;;;;;;21.02;100.00;101317.84;5044089;28;20025;-65
2022/10/26 10:31:20;;;;;;;14.77;3.47;;;;;;;21.25;100.00;101309.91;5044375;28;20087;-65
2022/10/26 10:33:45;;;;;;;12.82;3.63;;;;;;;21.84;100.00;101324.06;5042633;28;20092;-65
2022/10/26 10:36:17;;;;;;;14.10;3.35;;;;;;;22.23;100.00;101328.09;5045284;28;20029;-65
2022/10/26 10:38:44;;;;;;;16.00;3.43;;;;;;;22.53;100.00;101339.56;5043287;28;20479;-65
2022/10/26 10:41:31;;;;;;;14.15;3.40;;;;;;;22.41;100.00;101332.84;5044972;28;20056;-65
2022/10/26 10:44:07;;;;;;;15.23;3.30;;;;;;;22.41;100.00;101342.72;5040685;28;20071;-68
2022/10/26 10:46:34;;;;;;;14.98;3.50;;;;;;;22.46;100.00;101344.28;5044232;28;20032;-67
2022/10/26 10:49:05;;;;;;;12.70;3.22;;;;;;;22.42;100.00;101350.72;5043285;28;20025;-71
2022/10/26 10:51:38;;;;;;;14.23;3.45;;;;;;;23.13;100.00;101355.25;5044214;28;20048;-67
2022/10/26 10:54:06;;;;;;;15.68;3.55;;;;;;;23.15;100.00;101362.34;5043926;28;20123;-69
2022/10/26 10:56:36;;;;;;;13.95;3.60;;;;;;;22.94;100.00;101349.69;5044000;28;20163;-67
2022/10/26 10:59:23;;;;;;;12.07;3.25;;;;;;;22.75;100.00;101352.22;5043480;28;20380;-68
2022/10/26 11:01:54;;;;;;;13.40;3.42;;;;;;;21.70;100.00;101356.84;5038313;28;20036;-68
2022/10/26 11:04:38;;;;;;;13.13;3.10;;;;;;;22.09;100.00;101361.78;5038521;28;20029;-68
2022/10/26 11:07:06;;;;;;;13.82;3.20;;;;;;;22.41;100.00;101361.56;5042417;28;20155;-67
2022/10/26 11:09:38;;;;;;;14.35;3.20;;;;;;;21.75;100.00;101362.06;5043745;28;20032;-68
2022/10/26 11:12:09;;;;;;;14.70;3.20;;;;;;;21.79;100.00;101385.25;5043462;28;20036;-68
2022/10/26 11:14:41;;;;;;;11.57;3.20;;;;;;;21.74;100.00;101366.59;5043327;28;20623;-68
2022/10/26 11:17:20;;;;;;;11.52;3.03;;;;;;;22.12;100.00;101385.03;5043916;28;20128;-68
2022/10/26 11:19:58;;;;;;;11.07;3.00;;;;;;;21.63;100.00;101373.25;5041739;28;20095;-68
2022/10/26 11:22:28;;;;;;;14.55;3.00;;;;;;;21.60;100.00;101379.63;5038966;28;20424;-68